sensor_id;sensor_type;location;lat;lon;timestamp;P1;durP1;ratioP1;P2;durP2;ratioP2
20298;SDS011;10308;42.688;23.256;2023-06-19T00:02:06;4.35;;;3.97;;
20298;SDS011;10308;42.688;23.256;2023-06-19T00:04:36;5.13;;;4.25;;
20298;SDS011;10308;42.688;23.256;2023-06-19T00:07:04;4.97;;;4.35;;
20298;SDS011;10308;42.688;23.256;2023-06-19T00:09:32;4.38;;;4.03;;
20298;SDS011;10308;42.688;23.256;2023-06-19T00:12:00;4.60;;;4.20;;
20298;SDS011;10308;42.688;23.256;2023-06-19T00:14:30;5.05;;;4.13;;
20298;SDS011;10308;42.688;23.256;2023-06-19T00:16:59;4.18;;;3.88;;
20298;SDS011;10308;42.688;23.256;2023-06-19T00:19:27;4.55;;;3.95;;
20298;SDS011;10308;42.688;23.256;2023-06-19T00:22:02;4.43;;;4.13;;
20298;SDS011;10308;42.688;23.256;2023-06-19T00:24:32;4.80;;;4.40;;
20298;SDS011;10308;42.688;23.256;2023-06-19T00:27:00;4.57;;;4.18;;
20298;SDS011;10308;42.688;23.256;2023-06-19T00:29:30;4.13;;;3.83;;
20298;SDS011;10308;42.688;23.256;2023-06-19T00:31:58;4.72;;;4.32;;
20298;SDS011;10308;42.688;23.256;2023-06-19T00:34:28;4.03;;;3.80;;
20298;SDS011;10308;42.688;23.256;2023-06-19T00:36:57;4.65;;;4.22;;
20298;SDS011;10308;42.688;23.256;2023-06-19T00:39:27;4.20;;;3.90;;
20298;SDS011;10308;42.688;23.256;2023-06-19T00:41:57;4.47;;;4.10;;
20298;SDS011;10308;42.688;23.256;2023-06-19T00:44:24;5.07;;;3.63;;
20298;SDS011;10308;42.688;23.256;2023-06-19T00:46:55;4.82;;;4.40;;
20298;SDS011;10308;42.688;23.256;2023-06-19T00:49:24;5.32;;;4.15;;
20298;SDS011;10308;42.688;23.256;2023-06-19T00:51:53;4.97;;;4.25;;
20298;SDS011;10308;42.688;23.256;2023-06-19T00:54:21;4.60;;;4.10;;
20298;SDS011;10308;42.688;23.256;2023-06-19T00:56:52;4.40;;;4.10;;
20298;SDS011;10308;42.688;23.256;2023-06-19T00:59:20;4.55;;;4.13;;
20298;SDS011;10308;42.688;23.256;2023-06-19T01:01:47;4.57;;;4.18;;
20298;SDS011;10308;42.688;23.256;2023-06-19T01:04:14;4.50;;;4.10;;
20298;SDS011;10308;42.688;23.256;2023-06-19T01:06:43;4.97;;;4.47;;
20298;SDS011;10308;42.688;23.256;2023-06-19T01:09:15;5.57;;;4.13;;
20298;SDS011;10308;42.688;23.256;2023-06-19T01:11:46;4.50;;;4.10;;
20298;SDS011;10308;42.688;23.256;2023-06-19T01:14:17;4.65;;;4.25;;
20298;SDS011;10308;42.688;23.256;2023-06-19T01:16:46;4.80;;;4.40;;
20298;SDS011;10308;42.688;23.256;2023-06-19T01:19:15;4.03;;;3.63;;
20298;SDS011;10308;42.688;23.256;2023-06-19T01:21:46;3.97;;;3.67;;
20298;SDS011;10308;42.688;23.256;2023-06-19T01:24:16;4.43;;;3.90;;
20298;SDS011;10308;42.688;23.256;2023-06-19T01:26:44;4.60;;;4.20;;
20298;SDS011;10308;42.688;23.256;2023-06-19T01:29:12;4.43;;;4.03;;
20298;SDS011;10308;42.688;23.256;2023-06-19T01:31:43;4.50;;;4.15;;
20298;SDS011;10308;42.688;23.256;2023-06-19T01:34:21;4.47;;;4.07;;
20298;SDS011;10308;42.688;23.256;2023-06-19T01:36:50;4.32;;;4.03;;
20298;SDS011;10308;42.688;23.256;2023-06-19T01:39:20;4.22;;;3.83;;
20298;SDS011;10308;42.688;23.256;2023-06-19T01:41:48;4.38;;;4.07;;
20298;SDS011;10308;42.688;23.256;2023-06-19T01:44:17;4.47;;;4.07;;
20298;SDS011;10308;42.688;23.256;2023-06-19T01:46:46;4.50;;;4.10;;
20298;SDS011;10308;42.688;23.256;2023-06-19T01:49:15;5.03;;;4.57;;
20298;SDS011;10308;42.688;23.256;2023-06-19T01:51:43;4.90;;;4.40;;
20298;SDS011;10308;42.688;23.256;2023-06-19T01:54:11;4.95;;;4.32;;
20298;SDS011;10308;42.688;23.256;2023-06-19T01:56:41;5.22;;;4.55;;
20298;SDS011;10308;42.688;23.256;2023-06-19T01:59:09;4.65;;;4.25;;
20298;SDS011;10308;42.688;23.256;2023-06-19T02:01:37;4.40;;;4.00;;
20298;SDS011;10308;42.688;23.256;2023-06-19T02:04:05;4.47;;;4.07;;
20298;SDS011;10308;42.688;23.256;2023-06-19T02:06:32;4.32;;;3.97;;
20298;SDS011;10308;42.688;23.256;2023-06-19T02:09:00;4.93;;;4.40;;
20298;SDS011;10308;42.688;23.256;2023-06-19T02:11:28;4.25;;;3.95;;
20298;SDS011;10308;42.688;23.256;2023-06-19T02:13:58;5.00;;;4.60;;
20298;SDS011;10308;42.688;23.256;2023-06-19T02:16:26;4.88;;;4.45;;
20298;SDS011;10308;42.688;23.256;2023-06-19T02:18:54;5.00;;;4.60;;
20298;SDS011;10308;42.688;23.256;2023-06-19T02:21:25;5.15;;;4.75;;
20298;SDS011;10308;42.688;23.256;2023-06-19T02:23:54;6.65;;;5.20;;
20298;SDS011;10308;42.688;23.256;2023-06-19T02:26:25;5.93;;;5.43;;
20298;SDS011;10308;42.688;23.256;2023-06-19T02:28:54;5.35;;;4.95;;
20298;SDS011;10308;42.688;23.256;2023-06-19T02:31:29;5.53;;;4.60;;
20298;SDS011;10308;42.688;23.256;2023-06-19T02:33:57;6.25;;;4.78;;
20298;SDS011;10308;42.688;23.256;2023-06-19T02:36:26;4.93;;;4.45;;
20298;SDS011;10308;42.688;23.256;2023-06-19T02:38:55;5.20;;;4.80;;
20298;SDS011;10308;42.688;23.256;2023-06-19T02:41:24;6.70;;;4.45;;
20298;SDS011;10308;42.688;23.256;2023-06-19T02:43:52;5.50;;;4.60;;
20298;SDS011;10308;42.688;23.256;2023-06-19T02:46:18;5.18;;;4.68;;
20298;SDS011;10308;42.688;23.256;2023-06-19T02:48:47;5.28;;;4.50;;
20298;SDS011;10308;42.688;23.256;2023-06-19T02:51:15;5.28;;;4.80;;
20298;SDS011;10308;42.688;23.256;2023-06-19T02:53:42;5.88;;;4.78;;
20298;SDS011;10308;42.688;23.256;2023-06-19T02:56:11;5.25;;;4.75;;
20298;SDS011;10308;42.688;23.256;2023-06-19T02:58:39;5.28;;;4.78;;
20298;SDS011;10308;42.688;23.256;2023-06-19T03:01:07;6.53;;;5.05;;
20298;SDS011;10308;42.688;23.256;2023-06-19T03:03:35;5.93;;;5.32;;
20298;SDS011;10308;42.688;23.256;2023-06-19T03:06:06;7.30;;;5.28;;
20298;SDS011;10308;42.688;23.256;2023-06-19T03:08:34;5.55;;;5.05;;
20298;SDS011;10308;42.688;23.256;2023-06-19T03:11:02;7.40;;;5.53;;
20298;SDS011;10308;42.688;23.256;2023-06-19T03:13:33;6.22;;;5.30;;
20298;SDS011;10308;42.688;23.256;2023-06-19T03:16:13;6.43;;;5.60;;
20298;SDS011;10308;42.688;23.256;2023-06-19T03:18:42;6.28;;;5.70;;
20298;SDS011;10308;42.688;23.256;2023-06-19T03:21:12;6.75;;;5.25;;
20298;SDS011;10308;42.688;23.256;2023-06-19T03:23:40;6.03;;;5.47;;
20298;SDS011;10308;42.688;23.256;2023-06-19T03:26:08;5.80;;;5.00;;
20298;SDS011;10308;42.688;23.256;2023-06-19T03:28:36;5.57;;;5.15;;
20298;SDS011;10308;42.688;23.256;2023-06-19T03:31:04;6.88;;;5.20;;
20298;SDS011;10308;42.688;23.256;2023-06-19T03:33:33;5.60;;;4.90;;
20298;SDS011;10308;42.688;23.256;2023-06-19T03:36:01;9.57;;;5.97;;
20298;SDS011;10308;42.688;23.256;2023-06-19T03:38:35;5.28;;;4.78;;
20298;SDS011;10308;42.688;23.256;2023-06-19T03:41:03;5.50;;;5.00;;
20298;SDS011;10308;42.688;23.256;2023-06-19T03:43:30;6.32;;;5.10;;
20298;SDS011;10308;42.688;23.256;2023-06-19T03:46:00;6.05;;;5.20;;
20298;SDS011;10308;42.688;23.256;2023-06-19T03:48:28;6.88;;;5.55;;
20298;SDS011;10308;42.688;23.256;2023-06-19T03:50:55;5.93;;;5.32;;
20298;SDS011;10308;42.688;23.256;2023-06-19T03:53:25;7.50;;;5.50;;
20298;SDS011;10308;42.688;23.256;2023-06-19T03:55:55;7.68;;;5.93;;
20298;SDS011;10308;42.688;23.256;2023-06-19T03:58:24;7.90;;;5.75;;
20298;SDS011;10308;42.688;23.256;2023-06-19T04:00:52;6.95;;;5.57;;
20298;SDS011;10308;42.688;23.256;2023-06-19T04:03:20;10.50;;;6.65;;
20298;SDS011;10308;42.688;23.256;2023-06-19T04:05:48;7.40;;;6.28;;
20298;SDS011;10308;42.688;23.256;2023-06-19T04:08:19;11.05;;;6.93;;
20298;SDS011;10308;42.688;23.256;2023-06-19T04:10:46;7.78;;;6.20;;
20298;SDS011;10308;42.688;23.256;2023-06-19T04:13:15;6.85;;;5.45;;
20298;SDS011;10308;42.688;23.256;2023-06-19T04:15:43;6.82;;;6.13;;
20298;SDS011;10308;42.688;23.256;2023-06-19T04:18:11;6.78;;;6.07;;
20298;SDS011;10308;42.688;23.256;2023-06-19T04:20:39;5.40;;;4.90;;
20298;SDS011;10308;42.688;23.256;2023-06-19T04:23:06;5.70;;;5.20;;
20298;SDS011;10308;42.688;23.256;2023-06-19T04:25:34;5.75;;;5.25;;
20298;SDS011;10308;42.688;23.256;2023-06-19T04:28:01;5.75;;;5.25;;
20298;SDS011;10308;42.688;23.256;2023-06-19T04:30:31;5.72;;;5.10;;
20298;SDS011;10308;42.688;23.256;2023-06-19T04:32:59;5.63;;;5.13;;
20298;SDS011;10308;42.688;23.256;2023-06-19T04:35:27;6.30;;;5.70;;
20298;SDS011;10308;42.688;23.256;2023-06-19T04:37:55;6.25;;;5.57;;
20298;SDS011;10308;42.688;23.256;2023-06-19T04:40:27;5.85;;;5.35;;
20298;SDS011;10308;42.688;23.256;2023-06-19T04:42:55;6.88;;;5.15;;
20298;SDS011;10308;42.688;23.256;2023-06-19T04:45:26;6.47;;;5.50;;
20298;SDS011;10308;42.688;23.256;2023-06-19T04:47:56;7.95;;;5.97;;
20298;SDS011;10308;42.688;23.256;2023-06-19T04:50:24;5.45;;;4.95;;
20298;SDS011;10308;42.688;23.256;2023-06-19T04:52:52;5.20;;;4.70;;
20298;SDS011;10308;42.688;23.256;2023-06-19T04:55:20;5.97;;;5.47;;
20298;SDS011;10308;42.688;23.256;2023-06-19T04:57:47;5.80;;;5.22;;
20298;SDS011;10308;42.688;23.256;2023-06-19T05:00:16;6.20;;;4.82;;
20298;SDS011;10308;42.688;23.256;2023-06-19T05:02:45;5.72;;;5.10;;
20298;SDS011;10308;42.688;23.256;2023-06-19T05:05:15;5.53;;;5.03;;
20298;SDS011;10308;42.688;23.256;2023-06-19T05:07:43;5.25;;;4.75;;
20298;SDS011;10308;42.688;23.256;2023-06-19T05:10:12;5.07;;;4.68;;
20298;SDS011;10308;42.688;23.256;2023-06-19T05:12:40;4.70;;;4.30;;
20298;SDS011;10308;42.688;23.256;2023-06-19T05:15:09;5.15;;;4.65;;
20298;SDS011;10308;42.688;23.256;2023-06-19T05:17:40;4.97;;;4.57;;
20298;SDS011;10308;42.688;23.256;2023-06-19T05:20:08;5.70;;;4.63;;
20298;SDS011;10308;42.688;23.256;2023-06-19T05:22:39;5.90;;;5.40;;
20298;SDS011;10308;42.688;23.256;2023-06-19T05:25:09;5.40;;;4.88;;
20298;SDS011;10308;42.688;23.256;2023-06-19T05:27:37;4.40;;;4.10;;
20298;SDS011;10308;42.688;23.256;2023-06-19T05:30:06;4.85;;;4.53;;
20298;SDS011;10308;42.688;23.256;2023-06-19T05:32:33;4.63;;;4.28;;
20298;SDS011;10308;42.688;23.256;2023-06-19T05:35:02;5.45;;;4.15;;
20298;SDS011;10308;42.688;23.256;2023-06-19T05:37:31;4.70;;;4.30;;
20298;SDS011;10308;42.688;23.256;2023-06-19T05:40:03;4.68;;;4.30;;
20298;SDS011;10308;42.688;23.256;2023-06-19T05:42:32;5.57;;;4.65;;
20298;SDS011;10308;42.688;23.256;2023-06-19T05:45:00;4.97;;;4.55;;
20298;SDS011;10308;42.688;23.256;2023-06-19T05:47:29;4.40;;;4.00;;
20298;SDS011;10308;42.688;23.256;2023-06-19T05:49:57;4.75;;;4.35;;
20298;SDS011;10308;42.688;23.256;2023-06-19T05:52:25;4.90;;;4.50;;
20298;SDS011;10308;42.688;23.256;2023-06-19T05:54:52;4.47;;;4.07;;
20298;SDS011;10308;42.688;23.256;2023-06-19T05:57:22;4.68;;;4.38;;
20298;SDS011;10308;42.688;23.256;2023-06-19T05:59:50;5.13;;;4.72;;
20298;SDS011;10308;42.688;23.256;2023-06-19T06:02:19;5.28;;;4.47;;
20298;SDS011;10308;42.688;23.256;2023-06-19T06:04:48;5.13;;;4.63;;
20298;SDS011;10308;42.688;23.256;2023-06-19T06:07:15;5.28;;;4.88;;
20298;SDS011;10308;42.688;23.256;2023-06-19T06:09:43;5.40;;;5.00;;
20298;SDS011;10308;42.688;23.256;2023-06-19T06:12:11;6.32;;;5.28;;
20298;SDS011;10308;42.688;23.256;2023-06-19T06:14:41;5.18;;;4.70;;
20298;SDS011;10308;42.688;23.256;2023-06-19T06:17:09;4.80;;;4.20;;
20298;SDS011;10308;42.688;23.256;2023-06-19T06:19:37;5.78;;;4.13;;
20298;SDS011;10308;42.688;23.256;2023-06-19T06:22:05;4.82;;;4.22;;
20298;SDS011;10308;42.688;23.256;2023-06-19T06:24:36;5.65;;;5.15;;
20298;SDS011;10308;42.688;23.256;2023-06-19T06:27:05;5.05;;;4.65;;
20298;SDS011;10308;42.688;23.256;2023-06-19T06:29:35;4.82;;;4.43;;
20298;SDS011;10308;42.688;23.256;2023-06-19T06:32:06;4.68;;;4.28;;
20298;SDS011;10308;42.688;23.256;2023-06-19T06:34:34;4.43;;;4.13;;
20298;SDS011;10308;42.688;23.256;2023-06-19T06:37:02;4.47;;;4.07;;
20298;SDS011;10308;42.688;23.256;2023-06-19T06:39:31;4.65;;;4.25;;
20298;SDS011;10308;42.688;23.256;2023-06-19T06:42:01;4.97;;;4.40;;
20298;SDS011;10308;42.688;23.256;2023-06-19T06:44:29;4.78;;;4.38;;
20298;SDS011;10308;42.688;23.256;2023-06-19T06:46:57;4.85;;;4.35;;
20298;SDS011;10308;42.688;23.256;2023-06-19T06:49:27;4.40;;;4.07;;
20298;SDS011;10308;42.688;23.256;2023-06-19T06:51:55;5.45;;;4.90;;
20298;SDS011;10308;42.688;23.256;2023-06-19T06:54:24;5.10;;;4.47;;
20298;SDS011;10308;42.688;23.256;2023-06-19T06:56:52;4.38;;;3.97;;
20298;SDS011;10308;42.688;23.256;2023-06-19T06:59:23;4.55;;;4.15;;
20298;SDS011;10308;42.688;23.256;2023-06-19T07:01:52;4.88;;;4.35;;
20298;SDS011;10308;42.688;23.256;2023-06-19T07:04:20;4.50;;;4.20;;
20298;SDS011;10308;42.688;23.256;2023-06-19T07:06:48;4.93;;;4.43;;
20298;SDS011;10308;42.688;23.256;2023-06-19T07:09:16;4.97;;;4.57;;
20298;SDS011;10308;42.688;23.256;2023-06-19T07:11:47;4.43;;;4.07;;
20298;SDS011;10308;42.688;23.256;2023-06-19T07:14:16;5.47;;;4.88;;
20298;SDS011;10308;42.688;23.256;2023-06-19T07:16:44;4.90;;;4.50;;
20298;SDS011;10308;42.688;23.256;2023-06-19T07:19:12;5.07;;;4.00;;
20298;SDS011;10308;42.688;23.256;2023-06-19T07:21:40;4.75;;;4.20;;
20298;SDS011;10308;42.688;23.256;2023-06-19T07:24:10;4.40;;;4.00;;
20298;SDS011;10308;42.688;23.256;2023-06-19T07:26:38;4.60;;;4.28;;
20298;SDS011;10308;42.688;23.256;2023-06-19T07:29:06;4.80;;;4.30;;
20298;SDS011;10308;42.688;23.256;2023-06-19T07:31:34;4.78;;;4.38;;
20298;SDS011;10308;42.688;23.256;2023-06-19T07:34:03;5.13;;;4.72;;
20298;SDS011;10308;42.688;23.256;2023-06-19T07:36:31;6.30;;;4.20;;
20298;SDS011;10308;42.688;23.256;2023-06-19T07:39:01;5.30;;;4.22;;
20298;SDS011;10308;42.688;23.256;2023-06-19T07:41:31;4.97;;;4.20;;
20298;SDS011;10308;42.688;23.256;2023-06-19T07:44:01;4.60;;;4.13;;
20298;SDS011;10308;42.688;23.256;2023-06-19T07:46:29;5.68;;;5.18;;
20298;SDS011;10308;42.688;23.256;2023-06-19T07:48:58;5.65;;;4.38;;
20298;SDS011;10308;42.688;23.256;2023-06-19T07:51:26;5.25;;;4.70;;
20298;SDS011;10308;42.688;23.256;2023-06-19T07:53:54;5.38;;;4.88;;
20298;SDS011;10308;42.688;23.256;2023-06-19T07:56:22;5.95;;;5.38;;
20298;SDS011;10308;42.688;23.256;2023-06-19T07:58:51;5.45;;;4.95;;
20298;SDS011;10308;42.688;23.256;2023-06-19T08:01:20;5.35;;;4.65;;
20298;SDS011;10308;42.688;23.256;2023-06-19T08:03:48;4.68;;;4.28;;
20298;SDS011;10308;42.688;23.256;2023-06-19T08:06:16;4.95;;;4.55;;
20298;SDS011;10308;42.688;23.256;2023-06-19T08:08:44;4.97;;;4.63;;
20298;SDS011;10308;42.688;23.256;2023-06-19T08:11:13;4.95;;;4.55;;
20298;SDS011;10308;42.688;23.256;2023-06-19T08:13:41;4.70;;;4.20;;
20298;SDS011;10308;42.688;23.256;2023-06-19T08:16:10;4.70;;;4.25;;
20298;SDS011;10308;42.688;23.256;2023-06-19T08:18:39;4.57;;;4.18;;
20298;SDS011;10308;42.688;23.256;2023-06-19T08:21:09;6.57;;;4.70;;
20298;SDS011;10308;42.688;23.256;2023-06-19T08:23:37;5.28;;;4.78;;
20298;SDS011;10308;42.688;23.256;2023-06-19T08:26:05;4.80;;;4.32;;
20298;SDS011;10308;42.688;23.256;2023-06-19T08:28:34;5.82;;;4.25;;
20298;SDS011;10308;42.688;23.256;2023-06-19T08:31:02;5.28;;;4.55;;
20298;SDS011;10308;42.688;23.256;2023-06-19T08:33:33;6.50;;;4.40;;
20298;SDS011;10308;42.688;23.256;2023-06-19T08:36:02;4.55;;;4.15;;
20298;SDS011;10308;42.688;23.256;2023-06-19T08:38:31;4.65;;;4.32;;
20298;SDS011;10308;42.688;23.256;2023-06-19T08:40:59;4.78;;;4.38;;
20298;SDS011;10308;42.688;23.256;2023-06-19T08:43:27;4.78;;;4.30;;
20298;SDS011;10308;42.688;23.256;2023-06-19T08:46:01;5.00;;;4.53;;
20298;SDS011;10308;42.688;23.256;2023-06-19T08:48:37;4.45;;;4.05;;
20298;SDS011;10308;42.688;23.256;2023-06-19T08:51:05;5.13;;;4.60;;
20298;SDS011;10308;42.688;23.256;2023-06-19T08:53:33;4.40;;;4.10;;
20298;SDS011;10308;42.688;23.256;2023-06-19T08:56:03;5.00;;;4.45;;
20298;SDS011;10308;42.688;23.256;2023-06-19T08:58:32;4.35;;;4.03;;
20298;SDS011;10308;42.688;23.256;2023-06-19T09:01:03;4.80;;;4.30;;
20298;SDS011;10308;42.688;23.256;2023-06-19T09:03:31;4.72;;;4.32;;
20298;SDS011;10308;42.688;23.256;2023-06-19T09:06:04;4.55;;;4.13;;
20298;SDS011;10308;42.688;23.256;2023-06-19T09:08:34;4.93;;;4.53;;
20298;SDS011;10308;42.688;23.256;2023-06-19T09:11:03;5.47;;;4.93;;
20298;SDS011;10308;42.688;23.256;2023-06-19T09:13:32;5.57;;;4.70;;
20298;SDS011;10308;42.688;23.256;2023-06-19T09:16:01;4.40;;;4.00;;
20298;SDS011;10308;42.688;23.256;2023-06-19T09:18:30;4.30;;;3.90;;
20298;SDS011;10308;42.688;23.256;2023-06-19T09:21:00;4.60;;;4.25;;
20298;SDS011;10308;42.688;23.256;2023-06-19T09:23:29;4.53;;;3.95;;
20298;SDS011;10308;42.688;23.256;2023-06-19T09:25:58;5.10;;;4.70;;
20298;SDS011;10308;42.688;23.256;2023-06-19T09:28:26;5.25;;;4.75;;
20298;SDS011;10308;42.688;23.256;2023-06-19T09:30:55;4.90;;;4.45;;
20298;SDS011;10308;42.688;23.256;2023-06-19T09:33:25;4.85;;;4.30;;
20298;SDS011;10308;42.688;23.256;2023-06-19T09:35:55;6.18;;;4.80;;
20298;SDS011;10308;42.688;23.256;2023-06-19T09:38:24;6.13;;;4.25;;
20298;SDS011;10308;42.688;23.256;2023-06-19T09:41:00;5.05;;;4.63;;
20298;SDS011;10308;42.688;23.256;2023-06-19T09:43:30;5.07;;;4.68;;
20298;SDS011;10308;42.688;23.256;2023-06-19T09:46:01;5.88;;;4.35;;
20298;SDS011;10308;42.688;23.256;2023-06-19T09:48:30;5.00;;;4.32;;
20298;SDS011;10308;42.688;23.256;2023-06-19T09:51:07;4.88;;;4.38;;
20298;SDS011;10308;42.688;23.256;2023-06-19T09:53:40;4.70;;;4.30;;
20298;SDS011;10308;42.688;23.256;2023-06-19T09:56:13;4.53;;;4.22;;
20298;SDS011;10308;42.688;23.256;2023-06-19T09:58:41;5.05;;;4.55;;
20298;SDS011;10308;42.688;23.256;2023-06-19T10:01:10;4.60;;;4.10;;
20298;SDS011;10308;42.688;23.256;2023-06-19T10:03:39;4.30;;;4.00;;
20298;SDS011;10308;42.688;23.256;2023-06-19T10:06:12;4.65;;;4.25;;
20298;SDS011;10308;42.688;23.256;2023-06-19T10:08:42;4.30;;;3.90;;
20298;SDS011;10308;42.688;23.256;2023-06-19T10:11:13;4.60;;;4.25;;
20298;SDS011;10308;42.688;23.256;2023-06-19T10:13:41;4.55;;;4.15;;
20298;SDS011;10308;42.688;23.256;2023-06-19T10:16:19;4.68;;;4.28;;
20298;SDS011;10308;42.688;23.256;2023-06-19T10:18:48;4.65;;;4.25;;
20298;SDS011;10308;42.688;23.256;2023-06-19T10:21:16;8.07;;;6.47;;
20298;SDS011;10308;42.688;23.256;2023-06-19T10:23:51;5.05;;;4.55;;
20298;SDS011;10308;42.688;23.256;2023-06-19T10:26:30;4.70;;;4.22;;
20298;SDS011;10308;42.688;23.256;2023-06-19T10:29:12;4.95;;;4.55;;
20298;SDS011;10308;42.688;23.256;2023-06-19T10:31:43;4.63;;;4.18;;
20298;SDS011;10308;42.688;23.256;2023-06-19T10:34:12;4.57;;;4.18;;
20298;SDS011;10308;42.688;23.256;2023-06-19T10:36:40;5.80;;;4.80;;
20298;SDS011;10308;42.688;23.256;2023-06-19T10:39:08;4.80;;;4.40;;
20298;SDS011;10308;42.688;23.256;2023-06-19T10:41:39;4.43;;;4.13;;
20298;SDS011;10308;42.688;23.256;2023-06-19T10:44:10;4.78;;;4.38;;
20298;SDS011;10308;42.688;23.256;2023-06-19T10:46:41;4.93;;;4.53;;
20298;SDS011;10308;42.688;23.256;2023-06-19T10:49:08;4.65;;;4.25;;
20298;SDS011;10308;42.688;23.256;2023-06-19T10:51:40;5.35;;;4.70;;
20298;SDS011;10308;42.688;23.256;2023-06-19T10:54:10;4.78;;;4.40;;
20298;SDS011;10308;42.688;23.256;2023-06-19T10:56:40;5.25;;;4.43;;
20298;SDS011;10308;42.688;23.256;2023-06-19T10:59:10;4.95;;;4.45;;
20298;SDS011;10308;42.688;23.256;2023-06-19T11:01:40;5.20;;;4.45;;
20298;SDS011;10308;42.688;23.256;2023-06-19T11:04:09;4.60;;;4.20;;
20298;SDS011;10308;42.688;23.256;2023-06-19T11:06:38;5.68;;;4.43;;
20298;SDS011;10308;42.688;23.256;2023-06-19T11:09:07;4.78;;;4.20;;
20298;SDS011;10308;42.688;23.256;2023-06-19T11:11:36;4.63;;;4.22;;
20298;SDS011;10308;42.688;23.256;2023-06-19T11:14:06;4.80;;;4.40;;
20298;SDS011;10308;42.688;23.256;2023-06-19T11:16:34;4.75;;;4.35;;
20298;SDS011;10308;42.688;23.256;2023-06-19T11:19:06;4.80;;;4.45;;
20298;SDS011;10308;42.688;23.256;2023-06-19T11:21:36;4.72;;;4.32;;
20298;SDS011;10308;42.688;23.256;2023-06-19T11:24:05;4.82;;;4.43;;
20298;SDS011;10308;42.688;23.256;2023-06-19T11:26:37;5.22;;;4.72;;
20298;SDS011;10308;42.688;23.256;2023-06-19T11:29:17;5.15;;;4.60;;
20298;SDS011;10308;42.688;23.256;2023-06-19T11:31:47;5.00;;;4.60;;
20298;SDS011;10308;42.688;23.256;2023-06-19T11:34:15;5.22;;;4.72;;
20298;SDS011;10308;42.688;23.256;2023-06-19T11:36:44;4.90;;;4.50;;
20298;SDS011;10308;42.688;23.256;2023-06-19T11:39:12;5.00;;;4.60;;
20298;SDS011;10308;42.688;23.256;2023-06-19T11:41:43;4.93;;;4.50;;
20298;SDS011;10308;42.688;23.256;2023-06-19T11:44:12;4.75;;;4.35;;
20298;SDS011;10308;42.688;23.256;2023-06-19T11:46:43;4.95;;;4.45;;
20298;SDS011;10308;42.688;23.256;2023-06-19T11:49:11;5.10;;;4.55;;
20298;SDS011;10308;42.688;23.256;2023-06-19T11:51:41;5.43;;;4.93;;
20298;SDS011;10308;42.688;23.256;2023-06-19T11:54:10;5.15;;;4.75;;
20298;SDS011;10308;42.688;23.256;2023-06-19T11:56:38;4.75;;;4.35;;
20298;SDS011;10308;42.688;23.256;2023-06-19T11:59:06;5.28;;;4.72;;
20298;SDS011;10308;42.688;23.256;2023-06-19T12:01:35;5.25;;;4.85;;
20298;SDS011;10308;42.688;23.256;2023-06-19T12:04:05;5.20;;;4.80;;
20298;SDS011;10308;42.688;23.256;2023-06-19T12:06:36;5.53;;;5.03;;
20298;SDS011;10308;42.688;23.256;2023-06-19T12:09:04;6.00;;;5.20;;
20298;SDS011;10308;42.688;23.256;2023-06-19T12:11:32;5.38;;;4.88;;
20298;SDS011;10308;42.688;23.256;2023-06-19T12:14:02;4.95;;;4.45;;
20298;SDS011;10308;42.688;23.256;2023-06-19T12:16:30;4.78;;;4.38;;
20298;SDS011;10308;42.688;23.256;2023-06-19T12:18:58;5.68;;;5.18;;
20298;SDS011;10308;42.688;23.256;2023-06-19T12:21:28;5.43;;;4.93;;
20298;SDS011;10308;42.688;23.256;2023-06-19T12:23:55;5.57;;;5.10;;
20298;SDS011;10308;42.688;23.256;2023-06-19T12:26:23;5.10;;;4.70;;
20298;SDS011;10308;42.688;23.256;2023-06-19T12:28:52;5.32;;;4.82;;
20298;SDS011;10308;42.688;23.256;2023-06-19T12:31:20;6.10;;;4.90;;
20298;SDS011;10308;42.688;23.256;2023-06-19T12:33:48;5.28;;;4.78;;
20298;SDS011;10308;42.688;23.256;2023-06-19T12:36:15;5.20;;;4.70;;
20298;SDS011;10308;42.688;23.256;2023-06-19T12:38:44;4.57;;;4.18;;
20298;SDS011;10308;42.688;23.256;2023-06-19T12:41:14;5.22;;;4.82;;
20298;SDS011;10308;42.688;23.256;2023-06-19T12:43:43;5.00;;;4.43;;
20298;SDS011;10308;42.688;23.256;2023-06-19T12:46:12;5.05;;;4.53;;
20298;SDS011;10308;42.688;23.256;2023-06-19T12:48:40;5.28;;;4.88;;
20298;SDS011;10308;42.688;23.256;2023-06-19T12:51:10;5.35;;;4.85;;
20298;SDS011;10308;42.688;23.256;2023-06-19T12:53:38;5.07;;;4.57;;
20298;SDS011;10308;42.688;23.256;2023-06-19T12:56:06;5.15;;;4.75;;
20298;SDS011;10308;42.688;23.256;2023-06-19T12:58:34;5.43;;;4.95;;
20298;SDS011;10308;42.688;23.256;2023-06-19T13:01:03;4.82;;;4.30;;
20298;SDS011;10308;42.688;23.256;2023-06-19T13:03:30;4.75;;;4.25;;
20298;SDS011;10308;42.688;23.256;2023-06-19T13:05:58;6.65;;;5.13;;
20298;SDS011;10308;42.688;23.256;2023-06-19T13:08:26;5.25;;;4.78;;
20298;SDS011;10308;42.688;23.256;2023-06-19T13:10:54;6.40;;;4.72;;
20298;SDS011;10308;42.688;23.256;2023-06-19T13:13:23;5.07;;;4.47;;
20298;SDS011;10308;42.688;23.256;2023-06-19T13:15:51;4.70;;;4.32;;
20298;SDS011;10308;42.688;23.256;2023-06-19T13:18:20;5.53;;;5.00;;
20298;SDS011;10308;42.688;23.256;2023-06-19T13:20:48;4.97;;;4.55;;
20298;SDS011;10308;42.688;23.256;2023-06-19T13:23:16;4.93;;;4.53;;
20298;SDS011;10308;42.688;23.256;2023-06-19T13:25:44;5.90;;;4.47;;
20298;SDS011;10308;42.688;23.256;2023-06-19T13:28:11;4.68;;;4.00;;
20298;SDS011;10308;42.688;23.256;2023-06-19T13:30:41;5.38;;;4.88;;
20298;SDS011;10308;42.688;23.256;2023-06-19T13:33:10;6.15;;;4.10;;
20298;SDS011;10308;42.688;23.256;2023-06-19T13:35:38;4.50;;;4.20;;
20298;SDS011;10308;42.688;23.256;2023-06-19T13:38:06;4.85;;;4.45;;
20298;SDS011;10308;42.688;23.256;2023-06-19T13:40:36;4.75;;;4.35;;
20298;SDS011;10308;42.688;23.256;2023-06-19T13:43:04;4.43;;;4.03;;
20298;SDS011;10308;42.688;23.256;2023-06-19T13:45:33;4.15;;;3.80;;
20298;SDS011;10308;42.688;23.256;2023-06-19T13:48:02;4.72;;;4.32;;
20298;SDS011;10308;42.688;23.256;2023-06-19T13:50:31;4.53;;;4.13;;
20298;SDS011;10308;42.688;23.256;2023-06-19T13:52:59;4.50;;;4.10;;
20298;SDS011;10308;42.688;23.256;2023-06-19T13:55:27;4.57;;;4.20;;
20298;SDS011;10308;42.688;23.256;2023-06-19T13:57:55;3.90;;;3.60;;
20298;SDS011;10308;42.688;23.256;2023-06-19T14:00:24;4.40;;;3.95;;
20298;SDS011;10308;42.688;23.256;2023-06-19T14:02:52;5.20;;;4.13;;
20298;SDS011;10308;42.688;23.256;2023-06-19T14:05:21;4.75;;;4.35;;
20298;SDS011;10308;42.688;23.256;2023-06-19T14:07:49;6.82;;;4.43;;
20298;SDS011;10308;42.688;23.256;2023-06-19T14:10:18;4.70;;;4.30;;
20298;SDS011;10308;42.688;23.256;2023-06-19T14:12:47;5.55;;;5.05;;
20298;SDS011;10308;42.688;23.256;2023-06-19T14:15:15;8.75;;;4.43;;
20298;SDS011;10308;42.688;23.256;2023-06-19T14:17:45;4.45;;;4.15;;
20298;SDS011;10308;42.688;23.256;2023-06-19T14:20:13;4.28;;;3.97;;
20298;SDS011;10308;42.688;23.256;2023-06-19T14:22:45;4.70;;;4.20;;
20298;SDS011;10308;42.688;23.256;2023-06-19T14:25:14;4.70;;;4.30;;
20298;SDS011;10308;42.688;23.256;2023-06-19T14:27:40;5.20;;;4.53;;
20298;SDS011;10308;42.688;23.256;2023-06-19T14:30:11;5.10;;;4.70;;
20298;SDS011;10308;42.688;23.256;2023-06-19T14:32:39;5.32;;;4.82;;
20298;SDS011;10308;42.688;23.256;2023-06-19T14:35:07;4.97;;;4.25;;
20298;SDS011;10308;42.688;23.256;2023-06-19T14:37:35;4.97;;;4.57;;
20298;SDS011;10308;42.688;23.256;2023-06-19T14:40:05;5.40;;;5.00;;
20298;SDS011;10308;42.688;23.256;2023-06-19T14:42:34;4.85;;;4.45;;
20298;SDS011;10308;42.688;23.256;2023-06-19T14:45:03;6.13;;;4.70;;